Englewood, Colorado
Current Conditions -  °F | °C
As of 6:53 AM on Friday 31 Oct 2014 (Local Time) from KAPA Reporting Station
Few Clouds Few Clouds  
Wind Chill: 31°   Ceiling: Unl
Heat Index: 38°   Visibility: 10mi
Dew Point: 25°   Wind: 9mph
Humidity: 60%   Direction: 210°SSW
Pressure: 30.32"   Gusts: NA
Location:  39.65°N, 104.99°W
Report Text: KAPA 311253Z 21008KT 10SM FEW100 FEW150 FEW220 03/M04 A3032 RMK AO2 SLP263 T00331039
Loading
Personal Weather Stations






























Interactive Weather Map
Tropical Storm Tracking
New forecast layout! Learn more

10-Day Weather Forecast

Advertisements
Track Severe Weather on mobile